Time;durP1;ratioP1;P1;durP2;ratioP2;P2;SDS_P1;SDS_P2;PMS_P1;PMS_P2;Temp;Humidity;BMP_temperature;BMP_pressure;BME280_temperature;BME280_humidity;BME280_pressure;Samples;Min_cycle;Max_cycle;Signal;HPM_P1;HPM_P2
2023/11/19 00:01:22;;;;;;;3.63;1.70;;;;;;;;;;4921138;29;20422;-65
2023/11/19 00:03:48;;;;;;;1.30;0.87;;;;;;;;;;4920306;29;20062;-64
2023/11/19 00:06:13;;;;;;;1.03;0.83;;;;;;;;;;4924519;29;20098;-65
2023/11/19 00:08:38;;;;;;;0.97;0.53;;;;;;;;;;4923359;29;20063;-64
2023/11/19 00:11:04;;;;;;;0.83;0.83;;;;;;;;;;4925775;29;20467;-65
2023/11/19 00:13:29;;;;;;;0.50;0.40;;;;;;;;;;4915502;29;20425;-64
2023/11/19 00:15:54;;;;;;;1.10;0.80;;;;;;;;;;4921467;29;20488;-64
2023/11/19 00:18:20;;;;;;;0.40;0.40;;;;;;;;;;4917993;29;20036;-64
2023/11/19 00:20:46;;;;;;;0.93;0.63;;;;;;;;;;4918306;29;20481;-65
2023/11/19 00:23:11;;;;;;;0.93;0.77;;;;;;;;;;4913200;29;20028;-64
2023/11/19 00:25:38;;;;;;;0.90;0.83;;;;;;;;;;4919410;29;20032;-64
2023/11/19 00:28:03;;;;;;;2.83;1.50;;;;;;;;;;4913226;29;20374;-64
2023/11/19 00:30:30;;;;;;;0.43;0.43;;;;;;;;;;4913986;29;20031;-64
2023/11/19 00:32:56;;;;;;;0.93;0.83;;;;;;;;;;4919214;29;20023;-64
2023/11/19 00:35:21;;;;;;;2.43;1.27;;;;;;;;;;4921094;29;20413;-64
2023/11/19 00:37:47;;;;;;;0.50;0.50;;;;;;;;;;4921427;29;20394;-65
2023/11/19 00:40:13;;;;;;;0.33;0.33;;;;;;;;;;4918236;29;20074;-65
2023/11/19 00:42:38;;;;;;;1.23;0.93;;;;;;;;;;4923558;29;20418;-64
2023/11/19 00:45:08;;;;;;;3.20;1.10;;;;;;;;;;4923702;29;20136;-64
2023/11/19 00:47:33;;;;;;;0.40;0.40;;;;;;;;;;4926197;29;20595;-65
2023/11/19 00:49:58;;;;;;;1.60;1.03;;;;;;;;;;4925164;29;20103;-65
2023/11/19 00:52:23;;;;;;;2.03;1.20;;;;;;;;;;4915566;29;20373;-63
2023/11/19 00:54:49;;;;;;;0.40;0.40;;;;;;;;;;4922008;29;20118;-64
2023/11/19 00:57:14;;;;;;;1.20;1.00;;;;;;;;;;4905673;29;20078;-64
2023/11/19 00:59:41;;;;;;;2.40;1.63;;;;;;;;;;4922577;29;20031;-65
2023/11/19 01:02:07;;;;;;;1.93;1.00;;;;;;;;;;4924477;29;20456;-66
2023/11/19 01:04:35;;;;;;;1.10;0.93;;;;;;;;;;4922350;29;20028;-64
2023/11/19 01:07:04;;;;;;;0.57;0.50;;;;;;;;;;4923609;29;20033;-65
2023/11/19 01:09:29;;;;;;;0.50;0.50;;;;;;;;;;4915898;29;20296;-65
2023/11/19 01:11:54;;;;;;;1.77;1.53;;;;;;;;;;4920838;29;20020;-64
2023/11/19 01:14:20;;;;;;;0.77;0.73;;;;;;;;;;4919813;29;20666;-65
2023/11/19 01:16:46;;;;;;;1.13;0.90;;;;;;;;;;4930337;29;20031;-65
2023/11/19 01:19:11;;;;;;;0.40;0.40;;;;;;;;;;4927783;29;20031;-65
2023/11/19 01:21:36;;;;;;;0.83;0.60;;;;;;;;;;4909412;29;20481;-65
2023/11/19 01:24:03;;;;;;;0.53;0.53;;;;;;;;;;4922079;29;20392;-64
2023/11/19 01:26:28;;;;;;;1.17;0.63;;;;;;;;;;4918680;29;20204;-64
2023/11/19 01:28:53;;;;;;;1.03;0.93;;;;;;;;;;4913931;29;20130;-64
2023/11/19 01:31:19;;;;;;;2.23;1.67;;;;;;;;;;4918767;29;20531;-64
2023/11/19 01:33:44;;;;;;;1.20;0.97;;;;;;;;;;4913943;29;20111;-66
2023/11/19 01:36:12;;;;;;;1.17;0.67;;;;;;;;;;4925846;29;20116;-65
2023/11/19 01:38:37;;;;;;;0.40;0.40;;;;;;;;;;4923960;29;20028;-66
2023/11/19 01:41:03;;;;;;;0.90;0.80;;;;;;;;;;4921441;29;20469;-66
2023/11/19 01:43:38;;;;;;;1.10;0.90;;;;;;;;;;4917654;29;20496;-65
2023/11/19 01:46:04;;;;;;;0.97;0.70;;;;;;;;;;4922768;29;20106;-64
2023/11/19 01:48:30;;;;;;;0.63;0.63;;;;;;;;;;4919796;29;20519;-66
2023/11/19 01:50:56;;;;;;;2.93;1.33;;;;;;;;;;4911092;29;20032;-67
2023/11/19 01:53:22;;;;;;;0.77;0.70;;;;;;;;;;4936172;29;20420;-64
2023/11/19 01:55:47;;;;;;;1.53;1.30;;;;;;;;;;4918904;29;20216;-65
2023/11/19 01:58:13;;;;;;;0.77;0.53;;;;;;;;;;4918577;29;20031;-65
2023/11/19 02:00:38;;;;;;;0.77;0.40;;;;;;;;;;4920233;29;20459;-65
2023/11/19 02:03:06;;;;;;;0.67;0.67;;;;;;;;;;4924326;29;20172;-65
2023/11/19 02:05:32;;;;;;;2.10;1.03;;;;;;;;;;4920095;29;20038;-64
2023/11/19 02:07:58;;;;;;;1.63;0.80;;;;;;;;;;4911405;29;20385;-67
2023/11/19 02:10:24;;;;;;;1.53;0.97;;;;;;;;;;4914307;29;20460;-63
2023/11/19 02:12:51;;;;;;;0.97;0.67;;;;;;;;;;4914433;29;20028;-66
2023/11/19 02:15:18;;;;;;;0.93;0.80;;;;;;;;;;4919468;29;20024;-66
2023/11/19 02:17:44;;;;;;;0.97;0.70;;;;;;;;;;4917269;29;20032;-66
2023/11/19 02:20:11;;;;;;;1.70;0.73;;;;;;;;;;4916314;29;20039;-64
2023/11/19 02:22:37;;;;;;;1.23;1.10;;;;;;;;;;4915893;29;20115;-64
2023/11/19 02:25:06;;;;;;;1.53;0.87;;;;;;;;;;4920737;29;20437;-66
2023/11/19 02:27:46;;;;;;;1.03;0.93;;;;;;;;;;4907892;29;20034;-65
2023/11/19 02:30:14;;;;;;;1.17;1.07;;;;;;;;;;4915721;29;20385;-64
2023/11/19 02:32:40;;;;;;;0.73;0.57;;;;;;;;;;4922491;29;20035;-66
2023/11/19 02:35:07;;;;;;;0.87;0.60;;;;;;;;;;4920721;28;20047;-65
2023/11/19 02:37:33;;;;;;;2.73;1.83;;;;;;;;;;4908347;29;20032;-65
2023/11/19 02:40:09;;;;;;;9.00;1.90;;;;;;;;;;4916718;29;20273;-64
2023/11/19 02:42:34;;;;;;;1.13;0.97;;;;;;;;;;4917152;29;20048;-65
2023/11/19 02:44:59;;;;;;;0.63;0.60;;;;;;;;;;4921472;29;20051;-64
2023/11/19 02:47:25;;;;;;;1.03;0.80;;;;;;;;;;4923282;28;20024;-65
2023/11/19 02:49:50;;;;;;;1.73;1.07;;;;;;;;;;4922380;29;20039;-66
2023/11/19 02:52:15;;;;;;;0.90;0.87;;;;;;;;;;4924006;29;20034;-66
2023/11/19 02:54:41;;;;;;;1.50;1.13;;;;;;;;;;4922881;29;20040;-65
2023/11/19 02:57:08;;;;;;;0.23;0.23;;;;;;;;;;4924000;29;20515;-65
2023/11/19 02:59:38;;;;;;;1.30;0.80;;;;;;;;;;4926739;29;20500;-66
2023/11/19 03:02:06;;;;;;;3.13;1.93;;;;;;;;;;4926576;29;20043;-64
2023/11/19 03:04:31;;;;;;;1.40;1.30;;;;;;;;;;4926474;29;20035;-66
2023/11/19 03:06:57;;;;;;;0.60;0.53;;;;;;;;;;4924777;29;20023;-64
2023/11/19 03:09:24;;;;;;;1.17;0.93;;;;;;;;;;4926906;29;20050;-66
2023/11/19 03:11:49;;;;;;;1.03;0.80;;;;;;;;;;4925923;29;20039;-65
2023/11/19 03:14:14;;;;;;;1.57;1.03;;;;;;;;;;4923409;29;20016;-65
2023/11/19 03:16:40;;;;;;;1.37;1.10;;;;;;;;;;4923380;29;20027;-65
2023/11/19 03:19:05;;;;;;;1.40;1.03;;;;;;;;;;4926956;29;20166;-64
2023/11/19 03:21:31;;;;;;;0.87;0.77;;;;;;;;;;4924024;29;20106;-65
2023/11/19 03:23:56;;;;;;;2.13;1.03;;;;;;;;;;4926417;29;20367;-65
2023/11/19 03:26:22;;;;;;;0.60;0.60;;;;;;;;;;4926730;29;20062;-66
2023/11/19 03:28:47;;;;;;;1.90;1.40;;;;;;;;;;4926890;29;20507;-65
2023/11/19 03:31:12;;;;;;;2.67;1.30;;;;;;;;;;4909481;29;20028;-66
2023/11/19 03:33:38;;;;;;;1.30;0.87;;;;;;;;;;4926572;29;20469;-66
2023/11/19 03:36:03;;;;;;;1.97;1.27;;;;;;;;;;4926692;29;20028;-65
2023/11/19 03:38:28;;;;;;;2.93;2.00;;;;;;;;;;4929060;29;20035;-64
2023/11/19 03:40:53;;;;;;;0.57;0.47;;;;;;;;;;4927027;29;20467;-68
2023/11/19 03:43:19;;;;;;;3.93;2.30;;;;;;;;;;4927857;29;20059;-67
2023/11/19 03:45:44;;;;;;;1.13;1.03;;;;;;;;;;4909772;29;20044;-69
2023/11/19 03:48:09;;;;;;;1.90;0.93;;;;;;;;;;4919740;29;20040;-73
2023/11/19 03:50:35;;;;;;;1.37;0.90;;;;;;;;;;4929162;29;20035;-68
2023/11/19 03:53:00;;;;;;;1.23;0.90;;;;;;;;;;4941056;29;20106;-68
2023/11/19 03:55:25;;;;;;;2.57;0.93;;;;;;;;;;4928633;29;20072;-69
2023/11/19 03:57:50;;;;;;;2.00;1.80;;;;;;;;;;4926801;29;20042;-72
2023/11/19 04:00:16;;;;;;;1.60;1.20;;;;;;;;;;4927166;29;20047;-67
2023/11/19 04:02:41;;;;;;;3.43;1.37;;;;;;;;;;4926566;29;20043;-71
2023/11/19 04:05:06;;;;;;;0.73;0.57;;;;;;;;;;4911677;29;20036;-68
2023/11/19 04:07:32;;;;;;;0.80;0.80;;;;;;;;;;4926141;29;20035;-66
2023/11/19 04:09:57;;;;;;;1.67;1.43;;;;;;;;;;4925549;29;20408;-68
2023/11/19 04:12:22;;;;;;;5.43;1.50;;;;;;;;;;4926366;29;20028;-63
2023/11/19 04:14:48;;;;;;;3.20;1.50;;;;;;;;;;4926085;29;20031;-69
2023/11/19 04:17:13;;;;;;;0.20;0.20;;;;;;;;;;4926344;29;20136;-70
2023/11/19 04:19:41;;;;;;;2.43;0.73;;;;;;;;;;4911933;29;20027;-69
2023/11/19 04:22:06;;;;;;;0.23;0.23;;;;;;;;;;4919109;29;20563;-68
2023/11/19 04:24:32;;;;;;;0.43;0.33;;;;;;;;;;4917772;29;20345;-67
2023/11/19 04:26:57;;;;;;;0.80;0.50;;;;;;;;;;4926048;29;20035;-69
2023/11/19 04:29:23;;;;;;;17.73;0.80;;;;;;;;;;4926354;29;20405;-71
2023/11/19 04:31:48;;;;;;;0.87;0.77;;;;;;;;;;4926273;29;20034;-70
2023/11/19 04:34:13;;;;;;;0.77;0.73;;;;;;;;;;4926120;29;20484;-72
2023/11/19 04:36:38;;;;;;;0.30;0.30;;;;;;;;;;4926028;29;20062;-69
2023/11/19 04:39:09;;;;;;;2.70;1.07;;;;;;;;;;4911606;29;20370;-66
2023/11/19 04:41:34;;;;;;;3.77;2.77;;;;;;;;;;4925595;29;20055;-73
2023/11/19 04:44:00;;;;;;;9.70;1.97;;;;;;;;;;4926282;29;20487;-68
2023/11/19 04:46:25;;;;;;;4.10;2.10;;;;;;;;;;4929986;29;20027;-70
2023/11/19 04:48:50;;;;;;;0.93;0.70;;;;;;;;;;4926275;29;20032;-65
2023/11/19 04:51:17;;;;;;;0.47;0.47;;;;;;;;;;4927237;29;20059;-67
2023/11/19 04:53:42;;;;;;;0.67;0.67;;;;;;;;;;4940051;29;20153;-65
2023/11/19 04:56:10;;;;;;;0.47;0.40;;;;;;;;;;4918056;29;20111;-65
2023/11/19 04:58:36;;;;;;;0.97;0.60;;;;;;;;;;4917469;29;20489;-65
2023/11/19 05:01:03;;;;;;;5.13;1.33;;;;;;;;;;4925527;29;20403;-64
2023/11/19 05:03:28;;;;;;;0.13;0.13;;;;;;;;;;4925217;29;20047;-65
2023/11/19 05:05:53;;;;;;;1.03;0.57;;;;;;;;;;4924892;29;20036;-64
2023/11/19 05:08:19;;;;;;;8.23;1.27;;;;;;;;;;4924858;29;20121;-64
2023/11/19 05:10:44;;;;;;;3.60;1.50;;;;;;;;;;4909707;29;20337;-65
2023/11/19 05:13:10;;;;;;;1.00;0.60;;;;;;;;;;4909258;29;20095;-64
2023/11/19 05:15:35;;;;;;;30.77;5.87;;;;;;;;;;4924387;29;20262;-65
2023/11/19 05:18:00;;;;;;;22.77;6.00;;;;;;;;;;4925003;29;20031;-65
2023/11/19 05:20:25;;;;;;;20.77;6.10;;;;;;;;;;4924776;29;20023;-65
2023/11/19 05:22:51;;;;;;;14.50;4.93;;;;;;;;;;4924957;29;20047;-63
2023/11/19 05:25:17;;;;;;;19.93;5.30;;;;;;;;;;4907789;29;20192;-64
2023/11/19 05:27:42;;;;;;;29.13;6.13;;;;;;;;;;4924714;29;20035;-65
2023/11/19 05:30:08;;;;;;;21.70;6.20;;;;;;;;;;4917558;29;20039;-65
2023/11/19 05:32:33;;;;;;;30.73;4.83;;;;;;;;;;4916552;29;20027;-65
2023/11/19 05:34:58;;;;;;;32.90;6.50;;;;;;;;;;4926863;29;20102;-65
2023/11/19 05:37:24;;;;;;;19.53;5.30;;;;;;;;;;4924792;29;20095;-66
2023/11/19 05:39:50;;;;;;;26.43;4.90;;;;;;;;;;4923479;29;20683;-64
2023/11/19 05:42:15;;;;;;;27.23;5.83;;;;;;;;;;4924876;29;20158;-64
2023/11/19 05:44:41;;;;;;;24.40;5.80;;;;;;;;;;4924805;29;20099;-65
2023/11/19 05:47:06;;;;;;;17.73;4.33;;;;;;;;;;4909634;29;20039;-64
2023/11/19 05:49:32;;;;;;;22.27;4.57;;;;;;;;;;4923832;29;20060;-65
2023/11/19 05:51:57;;;;;;;30.17;4.90;;;;;;;;;;4924623;29;20102;-64
2023/11/19 05:54:22;;;;;;;28.67;4.80;;;;;;;;;;4924640;29;20066;-65
2023/11/19 05:56:49;;;;;;;25.97;4.90;;;;;;;;;;4924590;29;20101;-65
2023/11/19 05:59:17;;;;;;;22.20;4.83;;;;;;;;;;4925069;29;20110;-66
2023/11/19 06:01:42;;;;;;;18.87;4.40;;;;;;;;;;4933601;29;20086;-65
2023/11/19 06:04:08;;;;;;;22.83;5.13;;;;;;;;;;4917589;29;20039;-64
2023/11/19 06:06:33;;;;;;;28.17;4.53;;;;;;;;;;4916053;29;20373;-65
2023/11/19 06:08:58;;;;;;;27.13;4.97;;;;;;;;;;4924568;29;20101;-64
2023/11/19 06:11:26;;;;;;;27.10;4.73;;;;;;;;;;4924731;29;20433;-65
2023/11/19 06:13:52;;;;;;;20.87;3.80;;;;;;;;;;4924576;29;20027;-64
2023/11/19 06:16:17;;;;;;;24.43;4.37;;;;;;;;;;4927221;29;20511;-65
2023/11/19 06:18:43;;;;;;;18.87;4.47;;;;;;;;;;4931553;29;20078;-65
2023/11/19 06:21:09;;;;;;;28.67;4.47;;;;;;;;;;4909270;29;20436;-64
2023/11/19 06:23:34;;;;;;;23.77;4.87;;;;;;;;;;4923893;29;20031;-64
2023/11/19 06:25:59;;;;;;;26.13;5.07;;;;;;;;;;4919410;29;20313;-65
2023/11/19 06:28:24;;;;;;;35.73;5.63;;;;;;;;;;4914532;29;20032;-67
2023/11/19 06:30:50;;;;;;;26.73;4.70;;;;;;;;;;4924270;29;20027;-64
2023/11/19 06:33:15;;;;;;;23.87;4.23;;;;;;;;;;4927329;29;20028;-64
2023/11/19 06:35:41;;;;;;;29.20;4.53;;;;;;;;;;4927371;29;20043;-65
2023/11/19 06:38:06;;;;;;;20.63;3.53;;;;;;;;;;4921365;29;20032;-66
2023/11/19 06:40:32;;;;;;;28.67;4.67;;;;;;;;;;4927697;29;20073;-65
2023/11/19 06:42:57;;;;;;;32.00;4.60;;;;;;;;;;4927657;29;20576;-64
2023/11/19 06:45:22;;;;;;;32.17;5.93;;;;;;;;;;4929933;29;20036;-64
2023/11/19 06:47:48;;;;;;;32.50;4.47;;;;;;;;;;4927834;29;20035;-64
2023/11/19 06:50:14;;;;;;;22.50;4.60;;;;;;;;;;4927930;29;20221;-65
2023/11/19 06:52:40;;;;;;;25.63;4.37;;;;;;;;;;4933181;29;20032;-65
2023/11/19 06:55:06;;;;;;;22.57;4.80;;;;;;;;;;4913309;29;20091;-65
2023/11/19 06:57:32;;;;;;;35.67;5.97;;;;;;;;;;4927036;29;20781;-66
2023/11/19 06:59:57;;;;;;;24.80;4.93;;;;;;;;;;4927750;29;20118;-65
2023/11/19 07:02:22;;;;;;;29.47;5.30;;;;;;;;;;4927611;29;20520;-65
2023/11/19 07:04:47;;;;;;;29.90;5.20;;;;;;;;;;4927668;29;20038;-65
2023/11/19 07:07:14;;;;;;;30.73;5.00;;;;;;;;;;4920651;29;20433;-65
2023/11/19 07:09:40;;;;;;;31.10;5.03;;;;;;;;;;4927297;29;20027;-65
2023/11/19 07:12:05;;;;;;;27.50;4.57;;;;;;;;;;4896832;29;20024;-64
2023/11/19 07:14:30;;;;;;;26.30;4.67;;;;;;;;;;4918685;29;20134;-64
2023/11/19 07:16:56;;;;;;;30.40;4.67;;;;;;;;;;4934989;29;20135;-65
2023/11/19 07:19:21;;;;;;;19.60;4.00;;;;;;;;;;4929355;29;20035;-65
2023/11/19 07:21:46;;;;;;;29.97;5.10;;;;;;;;;;4927666;29;20039;-64
2023/11/19 07:24:14;;;;;;;29.33;3.93;;;;;;;;;;4907078;29;20102;-64
2023/11/19 07:26:44;;;;;;;29.13;4.67;;;;;;;;;;4926431;29;20078;-64
2023/11/19 07:29:09;;;;;;;27.03;5.17;;;;;;;;;;4911873;29;20083;-67
2023/11/19 07:31:34;;;;;;;32.37;4.90;;;;;;;;;;4926567;29;20028;-65
2023/11/19 07:33:59;;;;;;;25.70;4.30;;;;;;;;;;4927076;29;20107;-64
2023/11/19 07:36:24;;;;;;;27.07;4.33;;;;;;;;;;4927163;29;20028;-64
2023/11/19 07:38:50;;;;;;;36.23;5.33;;;;;;;;;;4926949;29;20044;-66
2023/11/19 07:41:15;;;;;;;24.63;4.30;;;;;;;;;;4926973;29;20763;-65
2023/11/19 07:43:41;;;;;;;40.37;5.20;;;;;;;;;;4925964;29;20039;-67
2023/11/19 07:46:10;;;;;;;43.30;5.73;;;;;;;;;;4919598;29;20028;-65
2023/11/19 07:48:36;;;;;;;20.30;3.50;;;;;;;;;;4918859;29;20043;-65
2023/11/19 07:51:01;;;;;;;30.60;5.23;;;;;;;;;;4926983;29;20035;-65
2023/11/19 07:53:27;;;;;;;43.13;5.60;;;;;;;;;;4926872;29;20485;-65
2023/11/19 07:55:52;;;;;;;32.20;4.83;;;;;;;;;;4926539;29;20527;-68
2023/11/19 07:58:17;;;;;;;27.93;3.93;;;;;;;;;;4926449;29;20028;-65
2023/11/19 08:00:43;;;;;;;21.17;3.60;;;;;;;;;;4926527;29;20109;-64
2023/11/19 08:03:08;;;;;;;29.83;4.80;;;;;;;;;;4911579;29;20047;-65
2023/11/19 08:05:33;;;;;;;34.07;4.13;;;;;;;;;;4925586;29;20031;-67
2023/11/19 08:07:58;;;;;;;34.60;4.30;;;;;;;;;;4926509;29;20540;-65
2023/11/19 08:10:24;;;;;;;31.87;4.40;;;;;;;;;;4926569;29;20111;-65
2023/11/19 08:12:49;;;;;;;34.33;4.73;;;;;;;;;;4931947;29;20115;-64
2023/11/19 08:15:15;;;;;;;34.00;4.93;;;;;;;;;;4926252;29;20028;-65
2023/11/19 08:17:40;;;;;;;38.47;5.27;;;;;;;;;;4926320;29;20507;-69
2023/11/19 08:20:10;;;;;;;28.97;3.83;;;;;;;;;;4919365;29;20040;-66
2023/11/19 08:22:35;;;;;;;24.03;4.60;;;;;;;;;;4911140;29;20469;-66
2023/11/19 08:25:00;;;;;;;32.53;5.07;;;;;;;;;;4926380;29;20425;-67
2023/11/19 08:27:26;;;;;;;22.57;3.80;;;;;;;;;;4926178;29;20039;-66
2023/11/19 08:29:57;;;;;;;27.30;5.10;;;;;;;;;;4925959;29;20032;-65
2023/11/19 08:32:23;;;;;;;31.52;4.93;;;;;;;;;;4925733;29;20106;-66
2023/11/19 08:34:49;;;;;;;27.43;4.40;;;;;;;;;;4925821;29;20028;-64
2023/11/19 08:37:14;;;;;;;34.33;4.93;;;;;;;;;;4909767;29;20024;-65
2023/11/19 08:39:41;;;;;;;29.63;5.20;;;;;;;;;;4926169;29;20809;-64
2023/11/19 08:42:07;;;;;;;37.33;6.23;;;;;;;;;;4925647;29;20504;-66
2023/11/19 08:44:32;;;;;;;36.17;5.87;;;;;;;;;;4925652;29;20027;-64
2023/11/19 08:46:57;;;;;;;33.43;6.10;;;;;;;;;;4928035;29;20028;-65
2023/11/19 08:49:23;;;;;;;40.40;5.57;;;;;;;;;;4925544;29;20106;-65
2023/11/19 08:51:48;;;;;;;37.93;5.80;;;;;;;;;;4925689;29;20016;-65
2023/11/19 08:54:14;;;;;;;47.93;5.37;;;;;;;;;;4927519;28;20095;-65
2023/11/19 08:56:39;;;;;;;40.23;5.57;;;;;;;;;;4932878;28;20444;-64
2023/11/19 08:59:04;;;;;;;29.00;4.27;;;;;;;;;;4925769;29;20090;-63
2023/11/19 09:01:29;;;;;;;23.10;3.93;;;;;;;;;;4925418;29;20516;-64
2023/11/19 09:03:55;;;;;;;23.97;3.70;;;;;;;;;;4925618;29;20028;-66
2023/11/19 09:06:20;;;;;;;36.90;4.50;;;;;;;;;;4925272;29;20540;-65
2023/11/19 09:08:45;;;;;;;36.70;4.30;;;;;;;;;;4925049;29;20497;-67
2023/11/19 09:11:11;;;;;;;29.33;4.73;;;;;;;;;;4908829;29;20197;-65
2023/11/19 09:13:37;;;;;;;36.53;4.63;;;;;;;;;;4925269;29;20051;-64
2023/11/19 09:16:05;;;;;;;32.13;4.97;;;;;;;;;;4924824;29;20034;-63
2023/11/19 09:18:31;;;;;;;37.43;5.63;;;;;;;;;;4925298;29;20469;-64
2023/11/19 09:20:56;;;;;;;32.00;5.10;;;;;;;;;;4925008;29;20067;-65
2023/11/19 09:23:22;;;;;;;30.17;4.80;;;;;;;;;;4925304;29;20076;-65
2023/11/19 09:25:47;;;;;;;35.57;5.07;;;;;;;;;;4925426;29;20469;-63
2023/11/19 09:28:14;;;;;;;31.43;5.53;;;;;;;;;;4933364;29;20473;-65
2023/11/19 09:30:39;;;;;;;30.07;4.10;;;;;;;;;;4924900;29;20027;-66
2023/11/19 09:33:05;;;;;;;36.23;4.40;;;;;;;;;;4925003;29;20389;-65
2023/11/19 09:35:30;;;;;;;16.50;4.37;;;;;;;;;;4924137;29;20028;-64
2023/11/19 09:37:55;;;;;;;29.70;4.70;;;;;;;;;;4924849;29;20325;-66
2023/11/19 09:40:21;;;;;;;29.47;4.77;;;;;;;;;;4924743;29;20220;-64
2023/11/19 09:42:47;;;;;;;34.77;5.20;;;;;;;;;;4924636;29;20240;-64
2023/11/19 09:45:13;;;;;;;28.40;4.67;;;;;;;;;;4916382;29;20480;-64
2023/11/19 09:47:39;;;;;;;33.03;4.23;;;;;;;;;;4909202;29;20126;-66
2023/11/19 09:50:04;;;;;;;27.97;4.77;;;;;;;;;;4924901;29;20695;-67
2023/11/19 09:52:30;;;;;;;30.00;4.10;;;;;;;;;;4924652;29;20039;-66
2023/11/19 09:54:55;;;;;;;27.83;4.83;;;;;;;;;;4926966;29;20424;-64
2023/11/19 09:57:21;;;;;;;43.83;5.80;;;;;;;;;;4929195;29;20140;-64
2023/11/19 09:59:47;;;;;;;29.23;4.33;;;;;;;;;;4924686;29;20028;-65
2023/11/19 10:02:12;;;;;;;36.87;5.57;;;;;;;;;;4924522;29;20046;-65
2023/11/19 10:04:39;;;;;;;26.93;4.23;;;;;;;;;;4924441;29;20165;-65
2023/11/19 10:07:04;;;;;;;33.20;4.53;;;;;;;;;;4939811;28;20519;-65
2023/11/19 10:09:29;;;;;;;36.27;5.47;;;;;;;;;;4929245;29;20027;-64
2023/11/19 10:11:54;;;;;;;37.33;4.73;;;;;;;;;;4927772;29;20027;-64
2023/11/19 10:14:22;;;;;;;26.77;3.97;;;;;;;;;;4940805;29;20026;-63
2023/11/19 10:16:48;;;;;;;21.20;3.50;;;;;;;;;;4929279;29;20460;-66
2023/11/19 10:19:19;;;;;;;31.20;5.97;;;;;;;;;;4914185;29;20028;-65
2023/11/19 10:21:46;;;;;;;30.05;4.18;;;;;;;;;;4928368;29;20039;-65
2023/11/19 10:24:11;;;;;;;18.30;3.23;;;;;;;;;;4929661;29;20059;-66
2023/11/19 10:26:36;;;;;;;25.67;4.53;;;;;;;;;;4930841;29;20578;-63
2023/11/19 10:29:02;;;;;;;29.47;4.27;;;;;;;;;;4939080;29;20459;-64
2023/11/19 10:31:27;;;;;;;39.47;5.43;;;;;;;;;;4929457;29;20070;-65
2023/11/19 10:33:53;;;;;;;35.90;5.23;;;;;;;;;;4927828;29;20460;-65
2023/11/19 10:36:18;;;;;;;35.73;4.77;;;;;;;;;;4928568;29;20532;-64
2023/11/19 10:38:53;;;;;;;27.27;4.43;;;;;;;;;;4928248;29;20082;-64
2023/11/19 10:41:28;;;;;;;33.17;4.90;;;;;;;;;;4927690;29;20075;-66
2023/11/19 10:43:54;;;;;;;25.03;3.70;;;;;;;;;;4931114;29;20433;-65
2023/11/19 10:46:22;;;;;;;32.60;4.43;;;;;;;;;;4941051;29;20039;-64
2023/11/19 10:48:48;;;;;;;33.00;4.27;;;;;;;;;;4934447;29;20102;-64
2023/11/19 10:51:21;;;;;;;25.83;3.80;;;;;;;;;;4927999;29;20114;-65
2023/11/19 10:53:48;;;;;;;22.83;3.33;;;;;;;;;;4927961;29;20566;-63
2023/11/19 10:56:16;;;;;;;24.20;3.77;;;;;;;;;;4939932;29;20175;-65
2023/11/19 10:58:44;;;;;;;23.43;3.57;;;;;;;;;;4940239;29;20252;-64
2023/11/19 11:01:13;;;;;;;26.77;3.60;;;;;;;;;;4931469;29;20380;-65
2023/11/19 11:03:39;;;;;;;31.20;5.87;;;;;;;;;;4926878;29;20281;-66
2023/11/19 11:06:05;;;;;;;23.40;3.73;;;;;;;;;;4937068;29;20272;-64
2023/11/19 11:08:31;;;;;;;30.53;4.53;;;;;;;;;;4936283;29;20031;-64
2023/11/19 11:10:59;;;;;;;24.60;4.20;;;;;;;;;;4927906;29;20425;-64
2023/11/19 11:13:27;;;;;;;23.30;4.17;;;;;;;;;;4928426;29;20567;-63
2023/11/19 11:15:54;;;;;;;29.00;3.95;;;;;;;;;;4936703;29;20107;-64
2023/11/19 11:18:19;;;;;;;21.05;3.70;;;;;;;;;;4927088;29;20087;-65
2023/11/19 11:20:54;;;;;;;19.70;3.60;;;;;;;;;;4927489;29;20038;-64
2023/11/19 11:23:19;;;;;;;27.50;4.20;;;;;;;;;;4927009;29;20495;-64
2023/11/19 11:25:50;;;;;;;26.42;4.15;;;;;;;;;;4931279;29;20319;-65
2023/11/19 11:28:26;;;;;;;26.17;3.22;;;;;;;;;;4937338;29;20134;-64
2023/11/19 11:31:11;;;;;;;25.77;4.25;;;;;;;;;;4931295;29;20039;-63
2023/11/19 11:33:40;;;;;;;32.35;4.82;;;;;;;;;;4925469;29;20469;-64
2023/11/19 11:36:12;;;;;;;21.40;3.60;;;;;;;;;;4931631;29;20031;-65
2023/11/19 11:38:41;;;;;;;24.13;4.50;;;;;;;;;;4934876;29;20556;-64
2023/11/19 11:41:20;;;;;;;28.70;4.13;;;;;;;;;;4926711;29;20520;-63
2023/11/19 11:43:49;;;;;;;23.17;3.60;;;;;;;;;;4911216;29;20031;-65
2023/11/19 11:46:35;;;;;;;26.92;3.85;;;;;;;;;;4932875;29;20519;-63
2023/11/19 11:49:01;;;;;;;25.90;3.72;;;;;;;;;;4926536;29;20110;-63
2023/11/19 11:51:45;;;;;;;20.13;2.97;;;;;;;;;;4926460;29;20118;-62
2023/11/19 11:54:31;;;;;;;28.40;3.95;;;;;;;;;;4926362;29;20036;-64
2023/11/19 11:57:03;;;;;;;28.05;4.03;;;;;;;;;;4941944;29;20062;-65
2023/11/19 11:59:36;;;;;;;28.50;4.35;;;;;;;;;;4929895;29;20023;-63
2023/11/19 12:02:03;;;;;;;28.08;5.65;;;;;;;;;;4926614;29;20106;-65
2023/11/19 12:04:28;;;;;;;28.85;4.10;;;;;;;;;;4926324;29;20020;-67
2023/11/19 12:07:23;;;;;;;25.43;3.77;;;;;;;;;;4932730;29;20045;-66
2023/11/19 12:10:07;;;;;;;29.47;4.30;;;;;;;;;;4899466;29;20496;-65
2023/11/19 12:12:33;;;;;;;20.17;3.37;;;;;;;;;;4933626;29;20496;-68
2023/11/19 12:14:58;;;;;;;23.67;4.03;;;;;;;;;;4929690;29;20125;-70
2023/11/19 12:17:32;;;;;;;27.93;4.37;;;;;;;;;;4927415;29;20118;-71
2023/11/19 12:20:01;;;;;;;29.13;4.30;;;;;;;;;;4926472;29;20059;-71
2023/11/19 12:22:26;;;;;;;20.63;3.40;;;;;;;;;;4923155;29;20027;-65
2023/11/19 12:24:53;;;;;;;24.30;4.43;;;;;;;;;;4919402;29;20258;-65
2023/11/19 12:27:21;;;;;;;31.47;4.37;;;;;;;;;;4937676;29;20502;-66
2023/11/19 12:29:47;;;;;;;34.73;4.40;;;;;;;;;;4927317;29;20075;-65
2023/11/19 12:32:13;;;;;;;25.47;4.13;;;;;;;;;;4931048;29;20046;-64
2023/11/19 12:34:38;;;;;;;22.10;4.30;;;;;;;;;;4925954;29;20043;-66
2023/11/19 12:37:03;;;;;;;29.77;5.00;;;;;;;;;;4934818;29;20065;-67
2023/11/19 12:39:32;;;;;;;28.87;5.10;;;;;;;;;;4926815;29;20095;-68
2023/11/19 12:41:59;;;;;;;21.73;3.87;;;;;;;;;;4928324;29;20461;-66
2023/11/19 12:44:24;;;;;;;23.97;4.13;;;;;;;;;;4925016;29;20038;-69
2023/11/19 12:47:03;;;;;;;20.67;3.90;;;;;;;;;;4939301;29;20047;-68
2023/11/19 12:49:28;;;;;;;24.63;3.80;;;;;;;;;;4926883;29;20437;-70
2023/11/19 12:51:54;;;;;;;34.60;4.73;;;;;;;;;;4925715;29;20731;-68
2023/11/19 12:54:19;;;;;;;28.37;4.93;;;;;;;;;;4926070;29;20094;-70
2023/11/19 12:56:54;;;;;;;26.03;4.07;;;;;;;;;;4928365;29;20038;-69
2023/11/19 12:59:19;;;;;;;28.93;4.47;;;;;;;;;;4928118;29;20416;-71
2023/11/19 13:02:13;;;;;;;29.13;4.30;;;;;;;;;;4930587;29;20114;-71
2023/11/19 13:04:39;;;;;;;32.23;4.60;;;;;;;;;;4906960;29;20576;-69
2023/11/19 13:07:04;;;;;;;31.07;4.90;;;;;;;;;;4932757;29;20031;-67
2023/11/19 13:09:30;;;;;;;28.23;5.40;;;;;;;;;;4926315;29;20400;-70
2023/11/19 13:11:56;;;;;;;36.63;4.93;;;;;;;;;;4926839;29;20086;-73
2023/11/19 13:14:22;;;;;;;34.97;5.03;;;;;;;;;;4924806;29;20031;-69
2023/11/19 13:16:47;;;;;;;32.07;5.30;;;;;;;;;;4927571;29;20035;-71
2023/11/19 13:19:13;;;;;;;28.17;4.67;;;;;;;;;;4928673;29;20106;-67
2023/11/19 13:21:39;;;;;;;36.60;4.90;;;;;;;;;;4913239;29;20026;-67
2023/11/19 13:24:05;;;;;;;30.03;4.27;;;;;;;;;;4925337;29;20168;-68
2023/11/19 13:26:30;;;;;;;32.30;4.33;;;;;;;;;;4924782;29;20039;-67
2023/11/19 13:28:56;;;;;;;30.47;4.47;;;;;;;;;;4928856;29;20036;-67
2023/11/19 13:31:22;;;;;;;26.73;3.53;;;;;;;;;;4929795;29;20094;-73
2023/11/19 13:33:47;;;;;;;28.60;3.50;;;;;;;;;;4937410;29;20343;-68
2023/11/19 13:36:12;;;;;;;18.83;2.50;;;;;;;;;;4924820;29;20023;-68
2023/11/19 13:38:38;;;;;;;16.40;3.13;;;;;;;;;;4935939;29;20126;-73
2023/11/19 13:41:04;;;;;;;20.40;3.00;;;;;;;;;;4929684;29;20090;-69
2023/11/19 13:43:30;;;;;;;21.87;3.60;;;;;;;;;;4916163;29;20092;-68
2023/11/19 13:45:55;;;;;;;19.47;3.30;;;;;;;;;;4923231;29;20107;-68
2023/11/19 13:48:20;;;;;;;16.33;3.47;;;;;;;;;;4928558;29;20488;-68
2023/11/19 13:50:46;;;;;;;17.67;2.50;;;;;;;;;;4930940;29;20406;-70
2023/11/19 13:53:11;;;;;;;16.10;2.80;;;;;;;;;;4923956;29;20750;-75
2023/11/19 13:55:36;;;;;;;14.13;2.87;;;;;;;;;;4910633;29;20354;-72
2023/11/19 13:58:01;;;;;;;15.97;2.70;;;;;;;;;;4922141;29;20113;-66
2023/11/19 14:00:26;;;;;;;15.13;3.00;;;;;;;;;;4924386;29;20036;-68
2023/11/19 14:02:52;;;;;;;16.67;2.27;;;;;;;;;;4922252;29;20047;-65
2023/11/19 14:05:17;;;;;;;16.13;2.87;;;;;;;;;;4922936;29;20015;-66
2023/11/19 14:07:43;;;;;;;14.73;2.50;;;;;;;;;;4924363;29;20182;-67
2023/11/19 14:10:10;;;;;;;14.47;2.30;;;;;;;;;;4922770;29;20111;-68
2023/11/19 14:12:37;;;;;;;16.30;3.47;;;;;;;;;;4931470;29;20429;-65
2023/11/19 14:15:02;;;;;;;19.90;2.77;;;;;;;;;;4923522;29;20028;-68
2023/11/19 14:17:27;;;;;;;12.07;2.70;;;;;;;;;;4918907;29;20154;-70
2023/11/19 14:19:53;;;;;;;20.80;3.17;;;;;;;;;;4924789;29;20028;-66
2023/11/19 14:22:18;;;;;;;14.37;2.70;;;;;;;;;;4924287;29;20028;-69
2023/11/19 14:24:44;;;;;;;21.17;3.00;;;;;;;;;;4930925;29;20162;-66
2023/11/19 14:27:09;;;;;;;21.20;3.50;;;;;;;;;;4922193;29;20114;-71
2023/11/19 14:29:35;;;;;;;22.37;3.20;;;;;;;;;;4923982;29;20107;-69